Extreme weather reports worldwide

Thunderstorm

Station
 
Location
 
Name
 
Wind
Knots
Gust
Knots
Vis
SM
Temp/Dew
C
Baro
inHg
METAR
 
VIX SBVT Vitória, BR Eurico de Aguiar Salles Airport 17 6.21 27/24 29.68 SBVT 301800Z 05017KT 9999 VCTS FEW025 FEW035CB 27/24 Q1005
SSA SBSV Salvador, BR Deputado Luiz Eduardo Magalhães International Airport 14 3.11 26/23 29.79 SBSV 301800Z 05014KT 5000 -TSRA SCT010 BKN015 FEW023CB BKN060 26/23 Q1009 RERA
UIO SEQM Quito, EC Mariscal Sucre International Airport 11 6.21 20/12 30.21 SEQM 301843Z 35011KT 9999 TS FEW020CB SCT030 BKN100 20/12 Q1023 BECMG AT1940 NSW RMK A3022
0 SBLS Lagoa Santa, BR Lagoa Santa Airport 10 3.11 21/18 29.82 SBLS 301800Z 28010KT 5000 -TSRA SCT040 FEW045CB BKN080 21/18 Q1010
BPG SBBW Barra Do Garças, BR Barra do Garças Airport 10 6.21 28/25 29.76 SBBW 301800Z 32010KT 9999 -TSRA SCT020 FEW025CB SCT070 28/25 Q1008

Station
 
Location
 
Name
 
Wind
Knots
Gust
Knots
Vis
SM
Temp/Dew
C
Baro
inHg
METAR
 
IGL LTBL TR Çiğli Airport 10 6.21 12/6 29.88 LTBL 301814Z 30010KT 9999 -TSRA FEW020CB BKN035 12/06 Q1012 BECMG TL1850 NSW RMK RWY17 29013G24KT
PMW SBPJ Palmas, BR Brigadeiro Lysias Rodrigues Airport 9 6.21 29/23 29.79 SBPJ 301800Z 25009KT 9999 TS VCSH SCT030 FEW035CB 29/23 Q1009
COO DBBB Cotonou, BJ Cadjehoun Airport 7 6.21 29/25 29.82 DBBB 301800Z 22007KT 9999 TS FEW013 FEW023CB 29/25 Q1010 TEMPO 06015G35KT 4000 TSRA BKN010 FEW022CB
CTG SKCG Cartagena, CO Rafael Nuñez International Airport 7 6.21 30/25 29.79 SKCG 301818Z 25007KT 190V270 9999 TS VCSH FEW015CB SCT018 BKN200 30/25 Q1009 RMK CB/VCSH//N/SE A2979
PTY MPTO Tocumen, PA Tocumen International Airport 5 3.11 24/23 29.85 MPTO 301800Z 06005KT 5000 TSRA SCT014CB BKN070 24/23 Q1011 RWY WATER PATCHES NOSIG
PBM SMJP Zandery, SR Johan Adolf Pengel International Airport 5 4.35 26/24 29.79 SMJP 301810Z 18005KT 7000 -TSRA SCT010 FEW012CB SCT025 26/24 Q1009 BECMG FM1820 4000 TSRA
LTCB 4 3.73 12/11 29.68 LTCB 301750Z 22004KT 180V250 6000 -TSRA SCT025CB BKN028 12/11 Q1005
OKO RJTY Fussa, JP Yokota Air Base 4 2.25 9/9 29.63 RJTY 301835Z AUTO 26004KT 2 1/4SM -TSRA BR FEW002 FEW029 OVC045 09/09 A2963 RMK AO2 VIS 1 5/8 RWY18 RAE1755RAB03 TSB31 SLP038 $
SBBQ Barbacena, BR Major Brigadeiro Doorgal Borges Airport 4 0.62 20/19 29.94 SBBQ 301800Z 33004KT 1000 -TSRA BKN040 FEW050CB 20/19 Q1014
RAO SBRP Ribeirão Preto, BR Leite Lopes Airport 4 5.59 24/21 29.76 SBRP 301815Z 24004KT 9000 -TSRA SCT025 FEW040CB OVC100 24/21 Q1008
CEB RPVM Lapu-Lapu City, PH Mactan Cebu International Airport 4 6.21 27/25 29.76 RPVM 301800Z 25004KT 9999 TS FEW018CB BKN100 OVC250 27/25 Q1008 RMK A2977 CB SW-W
ABJ DIAP Abidjan, CI Port Bouet Airport 4 6.21 28/25 29.82 DIAP 301830Z 33004KT 220V020 9999 TS SCT012 FEW020CB 28/25 Q1010 TEMPO 4000 TSRA BKN010 FEW020CB
PVH SBPV Porto Velho, BR Governador Jorge Teixeira de Oliveira Airport 3 3.73 24/23 29.76 SBPV 301822Z 31003KT 6000 -TSRA SCT004 BKN010 FEW030CB BKN090 24/23 Q1008 RERA
AMQ WAPP Ambon, ID Pattimura Airport, Ambon 3 6.21 25/24 WAPP 301800Z 34003KT 9999 TS FEW015CB SCT018 25/24 Q1008NOSIG RMK CB TO E
VOGO 3 3.73 28/25 29.85 VOGO 301800Z 13003KT 6000 TS FEW020 BKN090 28/25 Q1011 TEMPO 4000 RA
HRI VCRI LK Mattala Rajapaksa International Airport 2 6.21 24/24 29.88 VCRI 301810Z 35002KT 9999 VCTS FEW017 FEW020CB 24/24 Q1012 NOSIG RMK SW/W
CMB VCBI Colombo, LK Bandaranaike International Colombo Airport 2 5.59 24/24 29.88 VCBI 301810Z 07002KT 9000 VCTS FEW016 FEW018CB BKN030 24/24 Q1012 NOSIG RMK SW/W/NW
PAC MPMG Albrook, PA Marcos A. Gelabert International Airport 1 3.73 25/24 29.82 MPMG 301825Z VRB01KT 6000 -TSRA SCT007 SCT013CB 25/24 Q1010 RWY WET TEMPO 8000 -TSRA
KUA WMKD Kuantan, MY Kuantan Airport 0 6.21 27/25 29.79 WMKD 301800Z 00000KT 9999 TS FEW017CB 27/25 Q1009 NOSIG
KBR WMKC Kota Baharu, MY Sultan Ismail Petra Airport 0 5.59 25/24 29.76 WMKC 301800Z 00000KT 9000 -TSRA FEW017CB SCT020 25/24 Q1008
PLU SBBH Belo Horizonte, BR Pampulha - Carlos Drummond de Andrade Airport 0 3.73 20/18 29.82 SBBH 301800Z 00000KT 6000 -TSRA SCT013 SCT035 FEW040CB BKN100 20/18 Q1010 RERA
ROB GLRB Monrovia, LR Roberts International Airport 0 6.21 28/25 29.79 GLRB 301830Z 00000KT 9999 TS SCT014 FEW024CB 28/25 Q1009 NOSIG RMK CB/NE-SE
TDD SLTR Trinidad, BO Teniente Av. Jorge Henrich Arauz Airport 0 2.17 23/23 29.79 SLTR 301800Z 00000KT 3500 -TSRA BKN003 FEW020CB OVC070 23/23 Q1009
MVB FOON Franceville, GA M'Vengue El Hadj Omar Bongo Ondimba International Airport 6.21 26/23 29.82 FOON 301800Z /////KT 9999 TS FEW013 FEW020CB 26/23 Q1010